Sydney, Florida
Current Conditions -  °F | °C
As of 4:55 PM on Monday 24 Nov 2014 (Local Time) from KPCM Reporting Station
Clear Clear  
Wind Chill: 84°   Ceiling: Unl
Heat Index: 87°   Visibility: 10mi
Dew Point: 68°   Wind: 8mph
Humidity: 58%   Direction: 220°SW
Pressure: 29.97"   Gusts: NA
Location:  27.96°N, 82.21°W
Report Text: KPCM 242155Z AUTO 22007KT 10SM CLR 29/20 A2997 RMK AO2
Loading
Personal Weather Stations






























Interactive Weather Map New forecast layout! Learn more

10-Day Weather Forecast

Advertisements
Track Severe Weather on mobile